Time;durP1;ratioP1;P1;durP2;ratioP2;P2;SDS_P1;SDS_P2;PMS_P1;PMS_P2;Temp;Humidity;BMP_temperature;BMP_pressure;BME280_temperature;BME280_humidity;BME280_pressure;Samples;Min_cycle;Max_cycle;Signal;HPM_P1;HPM_P2
2021/01/31 00:00:56;;;;;;;2.50;2.30;;;;;;;6.10;82.14;93741.16;5033267;28;20226;-81
2021/01/31 00:03:28;;;;;;;2.57;2.37;;;;;;;5.80;83.82;93752.63;5034421;28;20198;-81
2021/01/31 00:05:59;;;;;;;2.27;2.07;;;;;;;5.47;84.83;93745.66;5034246;28;20195;-80
2021/01/31 00:08:29;;;;;;;2.60;2.40;;;;;;;5.37;86.06;93754.66;5034090;28;20210;-81
2021/01/31 00:10:57;;;;;;;2.67;2.47;;;;;;;5.40;86.32;93751.69;5034130;28;20769;-81
2021/01/31 00:13:25;;;;;;;2.40;2.20;;;;;;;5.46;87.05;93753.50;5034110;28;20194;-82
2021/01/31 00:15:51;;;;;;;2.13;2.03;;;;;;;5.46;87.01;93753.50;5033834;28;20202;-81
2021/01/31 00:18:20;;;;;;;2.10;2.00;;;;;;;5.53;86.76;93751.78;5033272;28;20198;-80
2021/01/31 00:20:49;;;;;;;1.97;1.80;;;;;;;5.57;85.95;93755.53;5033662;28;20639;-81
2021/01/31 00:23:17;;;;;;;2.00;1.90;;;;;;;5.38;84.93;93758.78;5033238;28;20217;-81
2021/01/31 00:25:43;;;;;;;2.03;1.93;;;;;;;5.32;86.47;93756.97;5033491;28;20198;-79
2021/01/31 00:28:10;;;;;;;2.23;2.07;;;;;;;5.25;86.12;93758.69;5033052;28;20229;-80
2021/01/31 00:30:39;;;;;;;2.10;2.00;;;;;;;5.12;86.11;93757.66;5013644;28;20226;-79
2021/01/31 00:33:07;;;;;;;1.90;1.80;;;;;;;5.22;87.01;93763.19;5029927;28;20280;-82
2021/01/31 00:35:36;;;;;;;1.77;1.67;;;;;;;5.28;86.31;93756.56;5033063;28;20229;-81
2021/01/31 00:38:03;;;;;;;1.67;1.57;;;;;;;5.42;85.99;93760.75;5033677;28;20252;-81
2021/01/31 00:40:30;;;;;;;1.90;1.80;;;;;;;5.50;84.47;93760.59;5032727;28;20225;-82
2021/01/31 00:42:56;;;;;;;1.80;1.70;;;;;;;5.47;83.41;93753.31;5033283;28;20202;-82
2021/01/31 00:45:24;;;;;;;2.00;1.90;;;;;;;5.37;83.59;93757.22;5033367;28;20233;-81
2021/01/31 00:47:50;;;;;;;1.77;1.67;;;;;;;5.25;83.77;93762.03;5033400;28;20206;-81
2021/01/31 00:50:18;;;;;;;1.60;1.50;;;;;;;5.25;83.92;93759.50;5032464;28;20245;-81
2021/01/31 00:52:44;;;;;;;1.80;1.70;;;;;;;5.23;83.59;93764.00;5032968;28;20206;-79
2021/01/31 00:55:11;;;;;;;1.87;1.77;;;;;;;4.97;84.82;93754.44;5032594;28;20194;-81
2021/01/31 00:57:38;;;;;;;1.70;1.60;;;;;;;4.88;86.01;93755.56;5032699;28;20212;-80
2021/01/31 01:00:14;;;;;;;1.80;1.70;;;;;;;4.97;86.06;93751.09;5032061;28;20198;-81
2021/01/31 01:02:40;;;;;;;1.70;1.60;;;;;;;5.05;85.58;93759.38;5033141;28;20623;-81
2021/01/31 01:05:07;;;;;;;1.90;1.80;;;;;;;4.96;85.54;93762.28;5031986;28;20222;-81
2021/01/31 01:07:33;;;;;;;2.00;1.90;;;;;;;4.96;85.92;93759.72;5032820;28;20202;-81
2021/01/31 01:09:59;;;;;;;1.90;1.80;;;;;;;5.13;85.72;93766.91;5032509;28;20205;-81
2021/01/31 01:12:24;;;;;;;2.53;2.17;;;;;;;5.35;84.88;93770.16;5033033;28;20216;-79
2021/01/31 01:14:51;;;;;;;2.13;2.00;;;;;;;5.52;83.56;93773.16;5032471;28;20194;-80
2021/01/31 01:17:17;;;;;;;2.70;2.50;;;;;;;5.61;82.48;93773.78;5032798;28;20201;-81
2021/01/31 01:19:43;;;;;;;2.70;2.50;;;;;;;5.66;81.67;93771.44;5032210;28;20689;-80
2021/01/31 01:22:09;;;;;;;2.50;2.33;;;;;;;5.67;80.77;93783.22;5031873;28;20276;-79
2021/01/31 01:24:35;;;;;;;2.97;2.77;;;;;;;5.70;80.54;93770.88;5032195;28;20234;-81
2021/01/31 01:27:02;;;;;;;2.90;2.70;;;;;;;5.53;80.30;93775.53;5032268;28;20316;-80
2021/01/31 01:29:27;;;;;;;3.13;2.93;;;;;;;5.50;80.45;93772.56;5032175;28;20622;-80
2021/01/31 01:31:54;;;;;;;3.50;3.20;;;;;;;5.48;80.49;93777.06;5031937;28;20234;-81
2021/01/31 01:34:22;;;;;;;3.70;3.40;;;;;;;5.44;80.69;93775.88;5032296;28;20227;-81
2021/01/31 01:36:48;;;;;;;3.90;3.60;;;;;;;5.44;80.23;93776.66;5032416;28;20285;-81
2021/01/31 01:39:16;;;;;;;3.97;3.67;;;;;;;5.12;80.96;93778.06;5031453;28;20285;-78
2021/01/31 01:41:47;;;;;;;3.97;3.67;;;;;;;5.07;82.17;93777.84;5032443;28;20804;-80
2021/01/31 01:44:13;;;;;;;4.10;3.80;;;;;;;5.14;81.38;93783.78;5032870;28;20636;-80
2021/01/31 01:46:43;;;;;;;4.57;4.17;;;;;;;5.03;81.10;93774.06;5032961;28;20205;-80
2021/01/31 01:49:19;;;;;;;4.67;4.37;;;;;;;5.03;82.39;93776.63;5031953;28;20201;-81
2021/01/31 01:51:50;;;;;;;4.53;4.13;;;;;;;5.14;81.91;93777.88;5032226;28;20316;-81
2021/01/31 01:54:26;;;;;;;4.70;4.30;;;;;;;5.19;81.23;93784.00;5033039;28;20201;-81
2021/01/31 01:57:00;;;;;;;4.73;4.33;;;;;;;5.29;80.30;93787.97;5032994;28;20284;-81
2021/01/31 01:59:29;;;;;;;5.20;4.80;;;;;;;5.15;79.43;93784.56;5032049;28;20201;-81
2021/01/31 02:02:05;;;;;;;4.93;4.53;;;;;;;4.94;80.35;93787.97;5032758;28;20648;-81
2021/01/31 02:04:33;;;;;;;5.00;4.60;;;;;;;4.77;80.50;93784.13;5032737;28;20850;-81
2021/01/31 02:06:59;;;;;;;5.50;5.00;;;;;;;4.75;82.13;93791.16;5033220;28;20191;-80
2021/01/31 02:09:26;;;;;;;5.37;4.97;;;;;;;4.82;81.59;93787.66;5032095;28;20206;-80
2021/01/31 02:11:53;;;;;;;5.17;4.77;;;;;;;4.97;81.55;93800.34;5032390;28;20218;-80
2021/01/31 02:14:19;;;;;;;5.30;4.80;;;;;;;5.03;81.11;93797.03;5032457;28;20237;-81
2021/01/31 02:16:54;;;;;;;5.53;5.10;;;;;;;5.05;79.73;93789.19;5031843;28;20222;-81
2021/01/31 02:19:49;;;;;;;5.13;4.73;;;;;;;4.92;80.34;93792.47;5031963;28;20690;-80
2021/01/31 02:22:41;;;;;;;5.03;4.63;;;;;;;4.89;80.46;93800.47;4988168;28;20241;-81
2021/01/31 02:25:33;;;;;;;5.60;5.10;;;;;;;4.94;80.31;93805.03;5012784;28;20904;-81
2021/01/31 02:28:37;;;;;;;5.40;5.00;;;;;;;5.01;79.96;93806.63;5029274;28;20229;-81
2021/01/31 02:31:17;;;;;;;5.20;4.80;;;;;;;5.07;79.90;93815.31;5026257;28;20206;-81
2021/01/31 02:33:52;;;;;;;5.23;4.83;;;;;;;5.00;79.57;93812.72;5032365;28;20186;-80
2021/01/31 02:36:27;;;;;;;5.70;5.20;;;;;;;4.99;78.97;93806.03;5032777;28;20197;-81
2021/01/31 02:39:00;;;;;;;6.03;5.53;;;;;;;4.95;79.34;93811.69;5033017;28;20272;-81
2021/01/31 02:41:31;;;;;;;5.77;5.30;;;;;;;4.69;80.20;93807.19;5032410;28;20573;-81
2021/01/31 02:43:58;;;;;;;5.30;4.90;;;;;;;4.65;80.02;93808.50;5031911;28;20194;-80
2021/01/31 02:46:29;;;;;;;5.53;5.03;;;;;;;4.43;80.28;93805.97;5032665;28;20209;-80
2021/01/31 02:49:03;;;;;;;6.37;5.77;;;;;;;4.19;82.49;93808.13;5032280;28;20205;-81
2021/01/31 02:51:33;;;;;;;6.13;5.53;;;;;;;4.16;83.62;93815.16;5031353;28;20222;-81
2021/01/31 02:54:05;;;;;;;6.10;5.60;;;;;;;4.37;83.42;93804.19;5031425;28;20629;-81
2021/01/31 02:56:36;;;;;;;5.37;4.97;;;;;;;4.40;81.87;93808.13;5032074;28;20202;-81
2021/01/31 02:59:06;;;;;;;5.60;5.20;;;;;;;4.53;81.28;93803.13;5031085;28;20229;-80
2021/01/31 03:01:38;;;;;;;5.57;5.10;;;;;;;4.53;81.28;93805.69;5031563;28;20225;-81
2021/01/31 03:04:12;;;;;;;6.23;5.63;;;;;;;4.39;81.79;93809.88;5031575;28;20237;-80
2021/01/31 03:06:44;;;;;;;6.27;5.70;;;;;;;4.41;82.04;93810.50;5031701;28;20265;-82
2021/01/31 03:09:16;;;;;;;5.70;5.20;;;;;;;4.52;81.23;93819.38;5031410;28;20553;-79
2021/01/31 03:11:46;;;;;;;5.97;5.47;;;;;;;4.65;80.39;93816.94;5032039;28;20218;-81
2021/01/31 03:14:16;;;;;;;6.07;5.57;;;;;;;4.74;80.08;93818.41;5031184;28;20212;-81
2021/01/31 03:16:45;;;;;;;5.57;5.10;;;;;;;4.65;78.45;93816.16;5031953;28;20198;-82
2021/01/31 03:19:16;;;;;;;6.43;5.90;;;;;;;4.31;80.56;93820.19;5031557;28;20206;-81
2021/01/31 03:21:48;;;;;;;6.20;5.70;;;;;;;4.20;81.15;93820.66;5031103;28;20230;-80
2021/01/31 03:24:22;;;;;;;6.87;6.27;;;;;;;4.15;82.47;93822.97;5031822;28;20202;-82
2021/01/31 03:26:52;;;;;;;5.80;5.30;;;;;;;4.22;81.55;93826.38;5031978;28;20202;-80
2021/01/31 03:29:19;;;;;;;6.27;5.67;;;;;;;4.12;81.98;93834.28;5031467;28;20209;-81
2021/01/31 03:31:55;;;;;;;6.17;5.67;;;;;;;4.26;81.71;93836.97;5031243;28;20719;-81
2021/01/31 03:34:28;;;;;;;6.17;5.67;;;;;;;4.07;82.19;93835.78;5011729;28;20206;-80
2021/01/31 03:36:58;;;;;;;6.43;5.83;;;;;;;4.20;81.99;93845.34;5012750;28;20215;-81
2021/01/31 03:39:25;;;;;;;6.57;5.97;;;;;;;4.25;81.48;93840.47;5031416;28;20199;-81
2021/01/31 03:41:51;;;;;;;6.50;5.90;;;;;;;4.35;81.51;93841.00;5031019;28;20230;-80
2021/01/31 03:44:18;;;;;;;6.07;5.57;;;;;;;4.50;81.10;93849.34;5031387;28;20213;-80
2021/01/31 03:46:49;;;;;;;6.03;5.53;;;;;;;4.59;80.55;93855.94;5030698;28;20190;-80
2021/01/31 03:49:22;;;;;;;6.30;5.80;;;;;;;4.38;79.49;93851.63;5030975;28;20831;-80
2021/01/31 03:51:49;;;;;;;5.93;5.43;;;;;;;4.34;80.10;93859.78;5030930;28;20214;-81
2021/01/31 03:54:16;;;;;;;6.37;5.80;;;;;;;4.06;80.76;93864.78;5030798;28;20217;-81
2021/01/31 03:56:46;;;;;;;6.27;5.67;;;;;;;4.18;82.03;93870.19;5031428;28;20684;-82
2021/01/31 03:59:19;;;;;;;6.37;5.77;;;;;;;4.34;81.10;93859.78;5031171;28;20562;-79
2021/01/31 04:01:49;;;;;;;6.07;5.57;;;;;;;4.39;80.32;93872.78;5032058;28;20233;-81
2021/01/31 04:04:19;;;;;;;5.70;5.20;;;;;;;4.12;80.51;93874.25;5034302;28;20197;-81
2021/01/31 04:06:50;;;;;;;5.90;5.40;;;;;;;4.10;81.25;93873.63;5034685;28;20786;-81
2021/01/31 04:09:18;;;;;;;5.90;5.40;;;;;;;4.10;80.66;93882.06;5034121;28;20198;-78
2021/01/31 04:11:45;;;;;;;5.90;5.40;;;;;;;3.95;82.54;93885.59;5034683;28;20222;-80
2021/01/31 04:14:18;;;;;;;6.67;6.07;;;;;;;4.10;82.43;93894.00;5034385;28;20257;-81
2021/01/31 04:16:46;;;;;;;6.60;6.00;;;;;;;3.82;81.66;93888.78;5034940;28;20202;-80
2021/01/31 04:19:12;;;;;;;6.10;5.60;;;;;;;3.65;83.19;93889.94;5033313;28;20205;-80
2021/01/31 04:21:38;;;;;;;6.30;5.70;;;;;;;3.34;83.58;93890.88;5033967;28;20225;-80
2021/01/31 04:24:06;;;;;;;6.27;5.70;;;;;;;3.41;84.86;93889.22;5034199;28;20198;-81
2021/01/31 04:26:32;;;;;;;6.07;5.57;;;;;;;3.23;85.57;93898.16;5033855;28;20260;-81
2021/01/31 04:28:58;;;;;;;6.63;6.03;;;;;;;3.39;86.44;93890.34;5034062;28;20202;-81
2021/01/31 04:31:26;;;;;;;6.00;5.47;;;;;;;3.63;84.52;93891.88;5033257;28;20214;-81
2021/01/31 04:33:51;;;;;;;6.77;6.17;;;;;;;3.84;83.51;93894.50;5033706;28;20197;-81
2021/01/31 04:36:17;;;;;;;6.73;6.13;;;;;;;3.99;82.18;93897.03;5033692;28;20225;-81
2021/01/31 04:38:43;;;;;;;6.00;5.50;;;;;;;3.85;81.23;93901.13;5033863;28;20198;-81
2021/01/31 04:41:10;;;;;;;6.70;6.10;;;;;;;3.81;81.73;93902.47;5033438;28;20226;-81
2021/01/31 04:43:36;;;;;;;6.53;5.93;;;;;;;3.67;81.31;93900.72;5034172;28;20209;-81
2021/01/31 04:46:03;;;;;;;6.50;5.90;;;;;;;3.39;81.56;93906.41;5034340;28;20221;-79
2021/01/31 04:48:38;;;;;;;6.27;5.77;;;;;;;3.44;83.21;93906.69;5034371;28;20194;-81
2021/01/31 04:51:16;;;;;;;6.80;6.10;;;;;;;3.50;83.09;93907.72;5033550;28;20782;-80
2021/01/31 04:54:00;;;;;;;6.20;5.70;;;;;;;3.31;83.01;93910.78;5034470;28;20198;-80
2021/01/31 04:56:36;;;;;;;6.90;6.23;;;;;;;3.40;83.81;93918.16;5034407;28;20202;-81
2021/01/31 04:59:15;;;;;;;5.97;5.40;;;;;;;3.55;83.71;93925.00;5033525;28;20198;-80
2021/01/31 05:01:42;;;;;;;6.30;5.70;;;;;;;3.72;82.16;93924.66;5033143;28;20226;-81
2021/01/31 05:04:15;;;;;;;6.90;6.30;;;;;;;3.71;81.97;93927.38;5033145;28;20213;-81
2021/01/31 05:06:46;;;;;;;6.97;6.37;;;;;;;3.74;82.15;93934.69;5032925;28;20245;-81
2021/01/31 05:09:19;;;;;;;6.43;5.83;;;;;;;3.52;81.40;93936.31;5033566;28;20205;-81
2021/01/31 05:11:57;;;;;;;6.87;6.20;;;;;;;3.53;80.99;93937.13;5032939;28;20629;-81
2021/01/31 05:14:39;;;;;;;6.83;6.23;;;;;;;3.55;81.50;93942.81;5032084;28;20752;-80
2021/01/31 05:17:08;;;;;;;6.33;5.73;;;;;;;3.59;81.26;93938.97;5029554;28;20249;-80
2021/01/31 05:19:36;;;;;;;6.87;6.17;;;;;;;3.38;80.22;93942.19;5032491;28;20194;-81
2021/01/31 05:22:03;;;;;;;6.67;6.07;;;;;;;3.07;82.24;93939.75;5032386;28;20222;-80
2021/01/31 05:24:29;;;;;;;7.27;6.57;;;;;;;3.12;83.09;93940.81;5033180;28;20198;-80
2021/01/31 05:27:00;;;;;;;7.03;6.43;;;;;;;3.41;82.67;93947.72;5032986;28;20221;-81
2021/01/31 05:29:30;;;;;;;6.83;6.23;;;;;;;3.66;81.62;93955.91;5032600;28;20213;-81
2021/01/31 05:31:58;;;;;;;6.93;6.23;;;;;;;3.45;80.29;93956.59;5032812;28;20218;-81
2021/01/31 05:34:33;;;;;;;7.47;6.77;;;;;;;3.52;80.63;93951.59;5032491;28;20198;-80
2021/01/31 05:37:00;;;;;;;7.77;7.07;;;;;;;3.50;79.95;93957.81;5032752;28;20237;-81
2021/01/31 05:39:35;;;;;;;8.20;7.17;;;;;;;3.65;80.11;93956.09;5031950;28;20242;-83
2021/01/31 05:42:06;;;;;;;6.97;6.27;;;;;;;3.78;79.47;93962.16;5032709;28;20256;-83
2021/01/31 05:44:32;;;;;;;7.50;6.70;;;;;;;3.74;78.11;93960.91;5013275;28;20210;-81
2021/01/31 05:47:01;;;;;;;7.17;6.47;;;;;;;3.78;78.29;93967.25;5013145;28;20234;-81
2021/01/31 05:49:42;;;;;;;7.57;6.87;;;;;;;3.84;77.92;93973.41;5032672;28;20543;-81
2021/01/31 05:52:28;;;;;;;7.40;6.73;;;;;;;3.85;77.79;93971.66;5032287;28;20225;-79
2021/01/31 05:54:59;;;;;;;7.67;6.97;;;;;;;3.96;77.30;93973.75;5032372;28;20202;-81
2021/01/31 05:57:31;;;;;;;7.53;6.83;;;;;;;4.02;77.24;93976.38;5032001;28;20198;-81
2021/01/31 05:59:58;;;;;;;7.30;6.60;;;;;;;3.92;76.10;93983.47;5032490;28;20206;-79
2021/01/31 06:02:30;;;;;;;7.50;6.80;;;;;;;3.96;76.78;93987.25;5032730;28;20229;-80
2021/01/31 06:05:11;;;;;;;7.60;6.80;;;;;;;3.90;76.22;93995.59;5032732;28;20197;-81
2021/01/31 06:07:39;;;;;;;7.80;7.10;;;;;;;3.94;76.85;94001.13;5033200;28;20225;-80
2021/01/31 06:10:12;;;;;;;7.50;6.80;;;;;;;3.91;76.05;93996.38;5032720;28;20206;-81
2021/01/31 06:12:39;;;;;;;8.87;6.73;;;;;;;3.92;75.84;93993.66;5028332;28;20198;-81
2021/01/31 06:15:09;;;;;;;7.77;7.07;;;;;;;3.97;75.15;93990.59;5012730;28;20582;-81
2021/01/31 06:17:38;;;;;;;9.70;7.20;;;;;;;3.90;75.66;93994.81;5015366;28;20199;-80
2021/01/31 06:20:09;;;;;;;7.83;7.03;;;;;;;3.94;75.17;94001.13;5032098;28;20201;-80
2021/01/31 06:22:43;;;;;;;8.63;7.70;;;;;;;3.87;75.84;93995.16;5030903;28;20229;-81
2021/01/31 06:25:15;;;;;;;8.17;7.30;;;;;;;3.47;75.48;93997.91;5031353;28;20206;-80
2021/01/31 06:27:43;;;;;;;7.97;7.27;;;;;;;3.34;77.24;93995.16;5031521;28;20202;-81
2021/01/31 06:30:23;;;;;;;8.33;7.50;;;;;;;3.40;77.05;94007.19;5031655;28;20577;-81
2021/01/31 06:32:52;;;;;;;7.93;7.13;;;;;;;3.42;76.62;94004.47;5031465;28;20198;-79
2021/01/31 06:35:22;;;;;;;7.50;6.80;;;;;;;3.24;77.25;94002.25;5032122;28;20194;-83
2021/01/31 06:38:08;;;;;;;7.93;7.10;;;;;;;3.00;77.94;94000.66;5031003;28;20261;-83
2021/01/31 06:40:46;;;;;;;7.67;6.93;;;;;;;2.99;78.97;94001.59;5031575;28;20222;-83
2021/01/31 06:43:25;;;;;;;8.37;7.47;;;;;;;2.77;79.59;94013.34;5032780;28;20252;-81
2021/01/31 06:45:58;;;;;;;7.87;7.07;;;;;;;2.86;79.40;94010.75;5031961;28;20202;-81
2021/01/31 06:48:56;;;;;;;8.03;7.20;;;;;;;3.06;79.06;94022.88;5031619;28;20900;-81
2021/01/31 06:52:08;;;;;;;7.57;6.77;;;;;;;3.15;78.08;94021.03;5031601;28;20218;-81
2021/01/31 06:54:56;;;;;;;7.40;6.70;;;;;;;3.12;77.14;94019.63;4970353;28;20225;-81
2021/01/31 06:57:44;;;;;;;8.47;7.07;;;;;;;3.03;78.06;94024.94;4961742;28;20224;-80
2021/01/31 07:00:29;;;;;;;8.17;7.33;;;;;;;2.95;79.04;94020.69;4984480;28;20207;-81
2021/01/31 07:03:16;;;;;;;9.13;7.50;;;;;;;2.73;78.75;94019.72;5023673;28;20877;-80
2021/01/31 07:06:17;;;;;;;7.83;7.03;;;;;;;2.48;79.61;94023.34;5032043;28;20217;-81
2021/01/31 07:09:09;;;;;;;7.73;6.93;;;;;;;2.54;80.68;94032.81;4987815;28;20236;-80
2021/01/31 07:11:46;;;;;;;32.57;23.23;;;;;;;2.76;79.94;94037.16;5030672;28;20222;-80
2021/01/31 07:14:25;;;;;;;15.70;12.57;;;;;;;2.89;78.50;94038.34;5030999;28;20202;-80
2021/01/31 07:17:00;;;;;;;7.23;6.53;;;;;;;2.81;79.61;94034.13;5030870;28;20241;-79
2021/01/31 07:19:31;;;;;;;8.20;7.37;;;;;;;2.76;79.82;94034.63;5030656;28;20580;-80
2021/01/31 07:22:04;;;;;;;7.83;7.03;;;;;;;2.74;79.66;94038.28;5030631;28;20760;-81
2021/01/31 07:24:39;;;;;;;8.80;7.17;;;;;;;2.71;79.50;94034.31;5030853;28;20622;-80
2021/01/31 07:27:13;;;;;;;8.27;6.70;;;;;;;2.82;79.45;94033.16;5029004;28;20205;-81
2021/01/31 07:29:44;;;;;;;7.27;6.57;;;;;;;2.98;78.72;94043.25;5023858;28;20202;-81
2021/01/31 07:32:17;;;;;;;7.93;6.73;;;;;;;2.97;78.44;94038.31;5027048;28;20210;-83
2021/01/31 07:34:51;;;;;;;8.73;7.13;;;;;;;2.94;78.96;94036.09;5028322;28;20202;-82
2021/01/31 07:37:18;;;;;;;8.03;7.23;;;;;;;2.86;78.21;94041.25;5031675;28;20549;-82
2021/01/31 07:42:14;;;;;;;7.20;6.50;;;;;;;2.98;79.20;94045.78;5014714;28;20840;-83
2021/01/31 07:44:42;;;;;;;7.70;6.73;;;;;;;2.95;77.66;94046.13;5018999;28;20210;-82
2021/01/31 07:47:08;;;;;;;7.97;7.13;;;;;;;3.13;78.11;94064.44;5012568;28;20239;-81
2021/01/31 07:50:06;;;;;;;7.63;6.83;;;;;;;3.27;76.77;94074.84;5015716;28;20199;-80
2021/01/31 07:52:46;;;;;;;7.33;6.50;;;;;;;3.44;76.23;94077.13;4976669;28;20201;-81
2021/01/31 07:55:18;;;;;;;36.70;27.90;;;;;;;3.63;76.03;94075.88;4989088;28;20199;-81
2021/01/31 07:57:59;;;;;;;13.30;10.97;;;;;;;3.55;75.24;94080.22;4987521;28;20195;-81
2021/01/31 08:00:33;;;;;;;9.87;7.90;;;;;;;3.52;76.45;94093.25;4985351;28;20220;-81
2021/01/31 08:02:59;;;;;;;7.53;6.73;;;;;;;3.60;76.87;94088.13;4977257;28;20247;-82
2021/01/31 08:05:52;;;;;;;7.90;7.10;;;;;;;3.73;76.74;94085.78;4986108;28;20211;-82
2021/01/31 08:08:57;;;;;;;7.53;6.80;;;;;;;3.74;75.62;94085.63;4995268;28;20251;-81
2021/01/31 08:11:59;;;;;;;7.90;7.10;;;;;;;3.83;76.11;94095.75;4976524;28;20583;-82
2021/01/31 08:15:07;;;;;;;8.37;7.57;;;;;;;3.95;75.52;94089.28;4996176;28;20230;-81
2021/01/31 08:17:48;;;;;;;8.97;7.10;;;;;;;3.93;74.70;94092.00;4992738;28;20670;-82
2021/01/31 08:20:47;;;;;;;8.33;7.37;;;;;;;3.92;74.71;94079.44;4995136;28;20226;-81
2021/01/31 08:23:56;;;;;;;7.47;6.77;;;;;;;3.95;75.33;94084.19;4981469;28;20215;-82
2021/01/31 08:26:43;;;;;;;9.10;8.20;;;;;;;3.75;74.67;94091.50;4996393;28;20207;-82
2021/01/31 08:29:19;;;;;;;27.90;22.07;;;;;;;3.87;75.22;94092.66;4996637;28;20579;-81
2021/01/31 08:32:22;;;;;;;14.03;10.87;;;;;;;3.88;74.38;94090.91;4994874;28;20261;-82
2021/01/31 08:35:20;;;;;;;8.20;7.30;;;;;;;3.56;74.86;94094.50;4995374;28;20198;-82
2021/01/31 08:37:50;;;;;;;8.17;7.37;;;;;;;3.58;75.53;94107.88;4915931;29;20293;-81
2021/01/31 08:40:25;;;;;;;7.67;6.87;;;;;;;3.81;75.48;94106.91;4979178;28;20223;-81
2021/01/31 08:42:54;;;;;;;7.70;6.90;;;;;;;3.92;74.61;94107.44;4995362;28;20254;-82
2021/01/31 08:45:21;;;;;;;8.80;7.90;;;;;;;3.97;74.17;94110.25;4995370;28;20195;-79
2021/01/31 08:47:47;;;;;;;8.40;7.03;;;;;;;3.67;72.90;94109.38;4994362;28;20191;-80
2021/01/31 08:50:18;;;;;;;8.50;7.70;;;;;;;3.69;74.62;94123.50;4995590;28;20351;-82
2021/01/31 08:52:46;;;;;;;8.33;7.50;;;;;;;3.70;74.78;94119.22;4994931;28;20195;-81
2021/01/31 08:55:12;;;;;;;8.97;7.57;;;;;;;3.85;75.01;94114.94;4995858;28;20231;-81
2021/01/31 08:57:38;;;;;;;8.50;7.60;;;;;;;3.63;73.96;94123.41;4995464;28;20196;-81
2021/01/31 09:00:10;;;;;;;8.00;7.20;;;;;;;3.75;74.35;94127.13;4995138;28;20874;-81
2021/01/31 09:02:42;;;;;;;9.17;8.00;;;;;;;3.91;74.31;94128.75;4992864;28;20223;-82
2021/01/31 09:05:14;;;;;;;37.70;28.33;;;;;;;3.74;73.84;94123.81;4989464;28;20199;-83
2021/01/31 09:07:44;;;;;;;10.63;9.50;;;;;;;3.54;74.34;94124.44;4991891;28;20200;-81
2021/01/31 09:10:16;;;;;;;9.43;7.70;;;;;;;3.61;74.51;94132.97;4993130;28;20275;-81
2021/01/31 09:12:42;;;;;;;8.97;8.03;;;;;;;3.72;74.64;94130.03;4995359;28;20199;-82
2021/01/31 09:15:13;;;;;;;9.53;8.43;;;;;;;3.92;74.25;94127.78;4993206;28;20454;-81
2021/01/31 09:17:41;;;;;;;8.63;7.73;;;;;;;4.01;73.63;94125.03;4992032;28;20644;-81
2021/01/31 09:20:15;;;;;;;8.87;7.57;;;;;;;4.07;72.91;94121.78;4992427;28;20808;-81
2021/01/31 09:22:43;;;;;;;9.27;8.20;;;;;;;4.07;72.88;94124.31;4993053;28;20231;-80
2021/01/31 09:25:13;;;;;;;8.77;7.87;;;;;;;4.15;72.38;94126.81;4995881;28;20207;-82
2021/01/31 09:27:46;;;;;;;9.23;8.27;;;;;;;4.15;71.98;94134.44;4974692;28;20240;-80
2021/01/31 09:30:17;;;;;;;9.43;8.53;;;;;;;4.15;72.26;94134.44;4973950;28;20711;-80
2021/01/31 09:32:47;;;;;;;10.20;9.10;;;;;;;4.24;72.73;94137.69;4975681;28;20677;-79
2021/01/31 09:35:20;;;;;;;9.63;8.47;;;;;;;4.31;72.01;94127.63;4980781;28;20191;-80
2021/01/31 09:37:47;;;;;;;9.67;8.67;;;;;;;4.33;72.24;94129.03;4993484;28;20204;-80
2021/01/31 09:40:14;;;;;;;9.73;8.73;;;;;;;4.38;71.53;94136.16;4993153;28;20723;-81
2021/01/31 09:42:41;;;;;;;11.33;8.97;;;;;;;4.38;71.66;94131.84;4994847;28;20215;-79
2021/01/31 09:45:22;;;;;;;45.17;35.40;;;;;;;4.33;71.84;94141.75;4994602;28;20566;-79
2021/01/31 09:47:50;;;;;;;15.17;12.30;;;;;;;4.26;71.01;94134.97;4994626;28;20203;-81
2021/01/31 09:50:17;;;;;;;11.77;10.30;;;;;;;4.30;71.54;94143.84;4992964;28;20231;-80
2021/01/31 09:52:44;;;;;;;13.30;9.60;;;;;;;4.14;71.66;94145.59;4994020;28;20191;-79
2021/01/31 09:55:28;;;;;;;10.57;9.47;;;;;;;3.73;72.90;94146.88;4994059;28;20251;-81
2021/01/31 09:57:55;;;;;;;10.20;9.03;;;;;;;3.63;73.62;94142.03;4993107;28;20631;-80
2021/01/31 10:00:27;;;;;;;11.57;9.17;;;;;;;3.86;91.58;94156.47;4992842;28;20219;-80
2021/01/31 10:03:01;;;;;;;10.40;9.30;;;;;;;4.09;77.75;94154.72;4995196;28;20215;-82
2021/01/31 10:05:27;;;;;;;11.70;8.97;;;;;;;4.61;88.16;94148.84;4995077;28;20199;-80
2021/01/31 10:08:02;;;;;;;10.17;9.17;;;;;;;4.60;72.19;94149.78;4992670;28;20278;-80
2021/01/31 10:10:35;;;;;;;10.70;9.60;;;;;;;4.22;72.80;94149.03;4995631;28;20221;-79
2021/01/31 10:13:13;;;;;;;11.13;10.00;;;;;;;3.98;73.18;94144.94;4993072;28;20747;-82
2021/01/31 10:15:41;;;;;;;11.80;10.23;;;;;;;4.08;72.95;94150.56;4992197;28;20207;-79
2021/01/31 10:18:12;;;;;;;11.00;9.87;;;;;;;4.20;72.76;94149.22;4990478;28;20207;-81
2021/01/31 10:20:40;;;;;;;11.00;9.90;;;;;;;4.12;71.48;94149.28;4992591;28;20230;-80
2021/01/31 10:23:13;;;;;;;11.87;10.67;;;;;;;4.13;71.71;94159.28;4992412;28;20227;-80
2021/01/31 10:25:43;;;;;;;11.07;9.97;;;;;;;4.20;72.58;94153.53;4992323;28;20242;-81
2021/01/31 10:28:12;;;;;;;11.87;10.37;;;;;;;4.22;72.40;94154.94;4992771;28;20211;-81
2021/01/31 10:30:43;;;;;;;11.97;10.63;;;;;;;4.23;72.73;94153.97;4991856;28;20212;-80
2021/01/31 10:33:37;;;;;;;11.20;10.00;;;;;;;4.27;72.03;94151.84;4993403;28;20290;-81
2021/01/31 10:36:15;;;;;;;13.07;11.37;;;;;;;4.31;72.18;94158.97;4993186;28;20206;-81
2021/01/31 10:38:44;;;;;;;12.53;11.27;;;;;;;4.31;71.39;94161.53;4992861;28;20662;-81
2021/01/31 10:41:11;;;;;;;11.40;10.20;;;;;;;4.37;71.90;94162.59;4992539;28;20279;-80
2021/01/31 10:43:37;;;;;;;12.30;10.93;;;;;;;4.48;71.87;94159.59;4993726;28;20240;-81
2021/01/31 10:46:03;;;;;;;12.30;10.63;;;;;;;4.46;71.52;94138.59;4993281;28;20207;-81
2021/01/31 10:48:29;;;;;;;13.53;11.60;;;;;;;4.37;70.91;94148.09;4992932;28;20262;-83
2021/01/31 10:50:56;;;;;;;12.13;10.70;;;;;;;4.40;71.41;94152.06;4993535;28;20227;-79
2021/01/31 10:53:22;;;;;;;12.47;10.53;;;;;;;4.27;71.16;94149.28;4993308;28;20199;-81
2021/01/31 10:55:48;;;;;;;11.87;10.60;;;;;;;4.32;71.29;94145.28;4992985;28;20207;-79
2021/01/31 10:58:14;;;;;;;13.77;11.50;;;;;;;4.38;70.97;94144.59;4992980;28;20203;-80
2021/01/31 11:00:40;;;;;;;26.50;20.87;;;;;;;4.38;71.05;94141.25;4992580;28;20259;-77
2021/01/31 11:03:06;;;;;;;34.43;26.90;;;;;;;4.41;71.33;94141.69;4992462;28;20314;-80
2021/01/31 11:05:33;;;;;;;15.60;13.20;;;;;;;4.49;71.40;94148.44;4994073;28;20295;-81
2021/01/31 11:08:00;;;;;;;13.63;11.53;;;;;;;4.32;71.12;94140.19;4993988;28;20210;-81
2021/01/31 11:10:38;;;;;;;12.87;11.30;;;;;;;3.97;73.18;94135.72;4991976;28;20219;-81
2021/01/31 11:13:04;;;;;;;13.97;11.90;;;;;;;3.95;74.13;94137.66;5007895;28;20192;-82
2021/01/31 11:15:30;;;;;;;14.63;12.23;;;;;;;3.95;73.92;94140.19;5012488;28;20222;-80
2021/01/31 11:17:56;;;;;;;13.20;11.47;;;;;;;3.92;72.96;94148.97;4998490;28;20295;-80
2021/01/31 11:20:22;;;;;;;13.40;11.40;;;;;;;3.87;73.42;94150.44;5006040;28;20212;-81
2021/01/31 11:22:50;;;;;;;14.40;12.43;;;;;;;3.96;74.14;94151.97;5001521;28;20212;-81
2021/01/31 11:25:17;;;;;;;13.87;12.03;;;;;;;4.10;73.72;94148.66;4995815;28;20199;-81
2021/01/31 11:27:43;;;;;;;13.67;11.63;;;;;;;4.22;72.72;94149.84;5011478;28;20648;-80
2021/01/31 11:30:10;;;;;;;13.40;11.93;;;;;;;4.16;72.88;94151.31;5003939;28;20226;-80
2021/01/31 11:32:36;;;;;;;13.03;11.70;;;;;;;4.28;72.21;94146.56;5004819;28;20204;-81
2021/01/31 11:35:02;;;;;;;32.67;24.53;;;;;;;4.38;72.11;94151.44;5010891;28;20249;-83
2021/01/31 11:37:28;;;;;;;22.97;17.73;;;;;;;4.33;71.93;94159.59;4998930;28;20203;-80
2021/01/31 11:39:54;;;;;;;18.13;14.83;;;;;;;4.39;71.83;94161.47;5009375;28;20294;-81
2021/01/31 11:42:22;;;;;;;14.03;12.07;;;;;;;4.40;72.38;94164.81;5004840;28;20724;-81
2021/01/31 11:44:48;;;;;;;13.67;11.80;;;;;;;4.44;72.39;94151.50;5004329;28;20663;-81
2021/01/31 11:47:14;;;;;;;15.17;12.73;;;;;;;4.36;72.26;94149.06;5012367;28;20198;-81
2021/01/31 11:49:40;;;;;;;15.33;12.00;;;;;;;4.25;71.57;94156.31;5010315;28;20681;-81
2021/01/31 11:52:05;;;;;;;13.73;12.13;;;;;;;4.32;72.07;94147.81;5002398;28;20222;-81
2021/01/31 11:54:31;;;;;;;13.83;12.27;;;;;;;4.32;71.54;94142.72;5007413;28;20286;-80
2021/01/31 11:56:59;;;;;;;15.63;13.33;;;;;;;4.41;71.25;94135.81;5001280;28;20694;-81
2021/01/31 11:59:26;;;;;;;14.93;12.93;;;;;;;4.16;71.27;94138.56;5011949;28;20203;-81
2021/01/31 12:01:52;;;;;;;14.00;12.33;;;;;;;3.80;72.88;94135.06;5002488;28;20233;-81
2021/01/31 12:04:18;;;;;;;16.07;13.17;;;;;;;3.67;73.79;94135.63;5006411;28;20199;-79